createdAt,value
2023-01-20T00:00:41.762Z,266.82
2023-01-20T00:01:41.741Z,266.82
2023-01-20T00:02:41.801Z,266.82
2023-01-20T00:03:41.773Z,266.82
2023-01-20T00:04:41.740Z,266.82
2023-01-20T00:05:41.731Z,266.82
2023-01-20T00:06:41.738Z,266.82
2023-01-20T00:07:41.744Z,266.82
2023-01-20T00:08:41.726Z,266.82
2023-01-20T00:09:41.727Z,266.82
2023-01-20T00:10:41.734Z,266.82
2023-01-20T00:11:41.755Z,266.82
2023-01-20T00:12:41.732Z,266.82
2023-01-20T00:13:41.739Z,266.82
2023-01-20T00:14:41.748Z,266.82
2023-01-20T00:15:41.817Z,266.82
2023-01-20T00:16:41.737Z,266.82
2023-01-20T00:17:41.760Z,266.82
2023-01-20T00:18:41.763Z,266.82
2023-01-20T00:19:41.759Z,266.82
2023-01-20T00:20:41.736Z,266.82
2023-01-20T00:21:41.748Z,266.82
2023-01-20T00:22:41.737Z,266.82
2023-01-20T00:23:41.741Z,266.82
2023-01-20T00:24:41.731Z,266.82
2023-01-20T00:25:41.733Z,358.59
2023-01-20T00:26:41.734Z,304.94
2023-01-20T00:27:41.743Z,307.76
2023-01-20T00:28:41.747Z,324.71
2023-01-20T00:29:41.740Z,312
2023-01-20T00:30:41.788Z,341.65
2023-01-20T00:31:41.839Z,337.41
2023-01-20T00:32:41.743Z,345.88
2023-01-20T00:33:41.763Z,340.24
2023-01-20T00:34:41.785Z,303.53
2023-01-20T00:35:41.742Z,321.88
2023-01-20T00:36:41.756Z,314.82
2023-01-20T00:37:41.744Z,321.88
2023-01-20T00:38:41.746Z,4.24
2023-01-20T00:39:41.745Z,321.88
2023-01-20T00:40:41.743Z,324.71
2023-01-20T00:41:41.752Z,352.94
2023-01-20T00:42:41.756Z,314.82
2023-01-20T00:43:41.763Z,358.59
2023-01-20T00:44:41.756Z,9.88
2023-01-20T00:45:41.762Z,354.35
2023-01-20T00:46:41.801Z,352.94
2023-01-20T00:47:41.753Z,16.94
2023-01-20T00:48:41.779Z,28.24
2023-01-20T00:49:41.780Z,39.53
2023-01-20T00:50:41.790Z,11.29
2023-01-20T00:51:41.768Z,24
2023-01-20T00:52:41.767Z,9.88
2023-01-20T00:53:41.765Z,5.65
2023-01-20T00:54:41.749Z,14.12
2023-01-20T00:55:41.768Z,25.41
2023-01-20T00:56:41.795Z,25.41
2023-01-20T00:57:41.773Z,25.41
2023-01-20T00:58:41.765Z,25.41
2023-01-20T00:59:41.771Z,25.41
2023-01-20T01:00:41.820Z,25.41
2023-01-20T01:01:41.903Z,25.41
2023-01-20T01:02:41.846Z,25.41
2023-01-20T01:03:41.777Z,25.41
2023-01-20T01:04:41.763Z,25.41
2023-01-20T01:05:41.782Z,25.41
2023-01-20T01:06:41.801Z,25.41
2023-01-20T01:07:41.769Z,25.41
2023-01-20T01:08:41.771Z,25.41
2023-01-20T01:09:41.788Z,25.41
2023-01-20T01:10:41.782Z,25.41
2023-01-20T01:11:41.776Z,25.41
2023-01-20T01:12:41.771Z,25.41
2023-01-20T01:13:41.787Z,25.41
2023-01-20T01:14:41.767Z,25.41
2023-01-20T01:15:41.770Z,25.41
2023-01-20T01:16:41.795Z,25.41
2023-01-20T01:17:41.784Z,25.41
2023-01-20T01:18:41.786Z,25.41
2023-01-20T01:19:41.761Z,25.41
2023-01-20T01:20:41.787Z,25.41
2023-01-20T01:21:41.770Z,25.41
2023-01-20T01:22:41.822Z,25.41
2023-01-20T01:23:41.778Z,25.41
2023-01-20T01:24:41.769Z,25.41
2023-01-20T01:25:41.784Z,25.41
2023-01-20T01:26:41.783Z,25.41
2023-01-20T01:27:41.790Z,25.41
2023-01-20T01:28:41.793Z,25.41
2023-01-20T01:29:41.793Z,25.41
2023-01-20T01:30:41.826Z,25.41
2023-01-20T01:31:41.818Z,25.41
2023-01-20T01:32:41.782Z,25.41
2023-01-20T01:33:41.787Z,25.41
2023-01-20T01:34:41.790Z,25.41
2023-01-20T01:35:41.808Z,25.41
2023-01-20T01:36:41.803Z,25.41
2023-01-20T01:37:41.792Z,25.41
2023-01-20T01:38:41.815Z,25.41
2023-01-20T01:39:41.789Z,25.41
2023-01-20T01:40:41.815Z,25.41
2023-01-20T01:41:41.802Z,25.41
2023-01-20T01:42:42.822Z,25.41
2023-01-20T01:43:41.788Z,25.41
2023-01-20T01:44:41.792Z,25.41
2023-01-20T01:45:41.831Z,25.41
2023-01-20T01:46:41.799Z,25.41
2023-01-20T01:47:41.809Z,25.41
2023-01-20T01:48:41.815Z,25.41
2023-01-20T01:49:41.795Z,25.41
2023-01-20T01:50:41.808Z,25.41
2023-01-20T01:51:41.814Z,25.41
2023-01-20T01:52:41.800Z,25.41
2023-01-20T01:53:41.806Z,25.41
2023-01-20T01:54:41.817Z,25.41
2023-01-20T01:55:41.798Z,25.41
2023-01-20T01:56:41.806Z,25.41
2023-01-20T01:57:41.801Z,25.41
2023-01-20T01:58:41.809Z,25.41
2023-01-20T01:59:41.794Z,25.41
2023-01-20T02:00:41.813Z,25.41
2023-01-20T02:01:41.931Z,25.41
2023-01-20T02:02:41.842Z,25.41
2023-01-20T02:03:41.804Z,25.41
2023-01-20T02:04:41.803Z,25.41
2023-01-20T02:05:41.799Z,25.41
2023-01-20T02:06:41.808Z,25.41
2023-01-20T02:07:41.793Z,25.41
2023-01-20T02:08:41.810Z,25.41
2023-01-20T02:09:41.797Z,25.41
2023-01-20T02:10:41.825Z,25.41
2023-01-20T02:11:41.829Z,25.41
2023-01-20T02:12:41.814Z,25.41
2023-01-20T02:13:41.804Z,25.41
2023-01-20T02:14:41.808Z,25.41
2023-01-20T02:15:41.808Z,25.41
2023-01-20T02:16:41.925Z,25.41
2023-01-20T02:17:41.811Z,25.41
2023-01-20T02:18:41.809Z,25.41
2023-01-20T02:19:41.807Z,25.41
2023-01-20T02:20:41.817Z,25.41
2023-01-20T02:21:41.814Z,25.41
2023-01-20T02:22:41.819Z,25.41
2023-01-20T02:23:41.816Z,25.41
2023-01-20T02:24:41.838Z,25.41
2023-01-20T02:25:41.817Z,25.41
2023-01-20T02:26:41.846Z,25.41
2023-01-20T02:27:41.840Z,25.41
2023-01-20T02:28:41.842Z,25.41
2023-01-20T02:29:41.805Z,25.41
2023-01-20T02:30:41.859Z,25.41
2023-01-20T02:31:41.873Z,25.41
2023-01-20T02:32:41.818Z,25.41
2023-01-20T02:33:41.830Z,25.41
2023-01-20T02:34:41.827Z,25.41
2023-01-20T02:35:41.831Z,25.41
2023-01-20T02:36:41.826Z,25.41
2023-01-20T02:37:41.838Z,25.41
2023-01-20T02:38:41.843Z,25.41
2023-01-20T02:39:41.835Z,25.41
2023-01-20T02:40:41.838Z,25.41
2023-01-20T02:41:41.825Z,25.41
2023-01-20T02:42:41.850Z,25.41
2023-01-20T02:43:41.821Z,25.41
2023-01-20T02:44:41.847Z,25.41
2023-01-20T02:45:41.870Z,25.41
2023-01-20T02:46:41.825Z,25.41
2023-01-20T02:47:41.830Z,25.41
2023-01-20T02:48:41.820Z,25.41
2023-01-20T02:49:41.834Z,25.41
2023-01-20T02:50:41.851Z,25.41
2023-01-20T02:51:41.835Z,25.41
2023-01-20T02:52:41.832Z,25.41
2023-01-20T02:53:41.832Z,25.41
2023-01-20T02:54:41.825Z,25.41
2023-01-20T02:55:41.834Z,25.41
2023-01-20T02:56:41.830Z,25.41
2023-01-20T02:57:41.830Z,25.41
2023-01-20T02:58:41.847Z,25.41
2023-01-20T02:59:41.826Z,25.41
2023-01-20T03:00:41.822Z,25.41
2023-01-20T03:01:41.921Z,25.41
2023-01-20T03:02:41.828Z,25.41
2023-01-20T03:03:41.861Z,25.41
2023-01-20T03:04:41.840Z,25.41
2023-01-20T03:05:41.872Z,25.41
2023-01-20T03:06:41.831Z,25.41
2023-01-20T03:07:41.848Z,25.41
2023-01-20T03:08:41.840Z,25.41
2023-01-20T03:09:41.829Z,25.41
2023-01-20T03:10:41.840Z,25.41
2023-01-20T03:11:41.827Z,25.41
2023-01-20T03:12:41.831Z,25.41
2023-01-20T03:13:41.836Z,25.41
2023-01-20T03:14:41.872Z,25.41
2023-01-20T03:15:41.842Z,25.41
2023-01-20T03:16:41.899Z,25.41
2023-01-20T03:17:41.851Z,25.41
2023-01-20T03:18:41.854Z,25.41
2023-01-20T03:19:41.840Z,25.41
2023-01-20T03:20:41.826Z,25.41
2023-01-20T03:21:41.838Z,25.41
2023-01-20T03:22:41.853Z,25.41
2023-01-20T03:23:41.843Z,25.41
2023-01-20T03:24:41.849Z,25.41
2023-01-20T03:25:41.839Z,25.41
2023-01-20T03:26:41.845Z,25.41
2023-01-20T03:27:41.843Z,25.41
2023-01-20T03:28:41.849Z,25.41
2023-01-20T03:29:41.855Z,25.41
2023-01-20T03:30:42.011Z,25.41
2023-01-20T03:31:41.976Z,25.41
2023-01-20T03:32:41.839Z,25.41
2023-01-20T03:33:41.852Z,25.41
2023-01-20T03:34:41.847Z,25.41
2023-01-20T03:35:41.849Z,25.41
2023-01-20T03:36:41.847Z,25.41
2023-01-20T03:37:41.861Z,25.41
2023-01-20T03:38:41.855Z,25.41
2023-01-20T03:39:41.853Z,25.41
2023-01-20T03:40:41.855Z,25.41
2023-01-20T03:41:41.846Z,25.41
2023-01-20T03:42:41.871Z,25.41
2023-01-20T03:43:41.858Z,25.41
2023-01-20T03:44:41.848Z,25.41
2023-01-20T03:45:41.885Z,25.41
2023-01-20T03:46:41.891Z,25.41
2023-01-20T03:47:41.861Z,25.41
2023-01-20T03:48:41.862Z,25.41
2023-01-20T03:49:41.874Z,25.41
2023-01-20T03:50:41.855Z,25.41
2023-01-20T03:51:41.855Z,25.41
2023-01-20T03:52:46.808Z,25.41
2023-01-20T03:53:41.873Z,25.41
2023-01-20T03:54:41.853Z,25.41
2023-01-20T03:55:41.858Z,25.41
2023-01-20T03:56:41.864Z,25.41
2023-01-20T03:57:41.857Z,25.41
2023-01-20T03:58:41.852Z,25.41
2023-01-20T03:59:41.862Z,25.41
2023-01-20T04:00:41.860Z,25.41
2023-01-20T04:01:41.976Z,25.41
2023-01-20T04:02:41.886Z,25.41
2023-01-20T04:03:42.052Z,25.41
2023-01-20T04:04:41.855Z,25.41
2023-01-20T04:05:41.871Z,25.41
2023-01-20T04:06:41.870Z,25.41
2023-01-20T04:07:41.856Z,25.41
2023-01-20T04:08:41.854Z,25.41
2023-01-20T04:09:41.867Z,25.41
2023-01-20T04:10:41.879Z,25.41
2023-01-20T04:11:41.860Z,25.41
2023-01-20T04:12:41.861Z,25.41
2023-01-20T04:13:41.856Z,25.41
2023-01-20T04:14:41.870Z,25.41
2023-01-20T04:15:41.891Z,25.41
2023-01-20T04:16:41.869Z,25.41
2023-01-20T04:17:41.865Z,25.41
2023-01-20T04:18:41.901Z,25.41
2023-01-20T04:19:41.872Z,25.41
2023-01-20T04:20:41.870Z,25.41
2023-01-20T04:21:41.862Z,25.41
2023-01-20T04:22:41.862Z,25.41
2023-01-20T04:23:41.875Z,25.41
2023-01-20T04:24:41.855Z,25.41
2023-01-20T04:25:41.888Z,25.41
2023-01-20T04:26:41.888Z,25.41
2023-01-20T04:27:41.869Z,25.41
2023-01-20T04:28:41.858Z,25.41
2023-01-20T04:29:41.878Z,25.41
2023-01-20T04:30:41.947Z,25.41
2023-01-20T04:31:41.905Z,25.41
2023-01-20T04:32:41.869Z,25.41
2023-01-20T04:33:41.863Z,25.41
2023-01-20T04:34:41.878Z,25.41
2023-01-20T04:35:41.863Z,25.41
2023-01-20T04:36:41.861Z,25.41
2023-01-20T04:37:41.875Z,25.41
2023-01-20T04:38:41.884Z,25.41
2023-01-20T04:39:41.862Z,25.41
2023-01-20T04:40:41.863Z,25.41
2023-01-20T04:41:41.861Z,25.41
2023-01-20T04:42:41.887Z,25.41
2023-01-20T04:43:41.856Z,25.41
2023-01-20T04:44:41.872Z,25.41
2023-01-20T04:45:41.911Z,25.41
2023-01-20T04:46:41.967Z,25.41
2023-01-20T04:47:41.887Z,25.41
2023-01-20T04:48:41.873Z,25.41
2023-01-20T04:49:41.860Z,25.41
2023-01-20T04:50:41.884Z,25.41
2023-01-20T04:51:41.866Z,25.41
2023-01-20T04:52:41.876Z,25.41
2023-01-20T04:53:41.864Z,25.41
2023-01-20T04:54:41.889Z,25.41
2023-01-20T04:55:41.858Z,25.41
2023-01-20T04:56:41.886Z,25.41
2023-01-20T04:57:41.871Z,25.41
2023-01-20T04:58:41.895Z,25.41
2023-01-20T04:59:41.882Z,25.41
2023-01-20T05:00:43.593Z,25.41
2023-01-20T05:01:42.115Z,25.41
2023-01-20T05:02:41.922Z,25.41
2023-01-20T05:03:41.882Z,25.41
2023-01-20T05:04:41.879Z,25.41
2023-01-20T05:05:41.880Z,25.41
2023-01-20T05:06:41.913Z,25.41
2023-01-20T05:07:41.879Z,25.41
2023-01-20T05:08:41.875Z,25.41
2023-01-20T05:09:41.890Z,25.41
2023-01-20T05:10:41.885Z,25.41
2023-01-20T05:11:41.872Z,25.41
2023-01-20T05:12:41.873Z,25.41
2023-01-20T05:13:41.871Z,25.41
2023-01-20T05:14:41.885Z,25.41
2023-01-20T05:15:41.938Z,25.41
2023-01-20T05:16:41.872Z,25.41
2023-01-20T05:17:41.893Z,25.41
2023-01-20T05:18:41.878Z,25.41
2023-01-20T05:19:41.874Z,25.41
2023-01-20T05:20:41.869Z,25.41
2023-01-20T05:21:41.874Z,25.41
2023-01-20T05:22:41.896Z,25.41
2023-01-20T05:23:41.872Z,25.41
2023-01-20T05:24:41.882Z,25.41
2023-01-20T05:25:41.865Z,25.41
2023-01-20T05:26:41.873Z,25.41
2023-01-20T05:27:41.870Z,25.41
2023-01-20T05:28:41.874Z,25.41
2023-01-20T05:29:41.890Z,25.41
2023-01-20T05:30:41.981Z,25.41
2023-01-20T05:31:41.928Z,25.41
2023-01-20T05:32:41.869Z,25.41
2023-01-20T05:33:41.883Z,25.41
2023-01-20T05:34:41.874Z,25.41
2023-01-20T05:35:41.875Z,25.41
2023-01-20T05:36:41.889Z,25.41
2023-01-20T05:37:41.885Z,25.41
2023-01-20T05:38:41.916Z,25.41
2023-01-20T05:39:41.892Z,25.41
2023-01-20T05:40:41.875Z,25.41
2023-01-20T05:41:41.869Z,25.41
2023-01-20T05:42:41.886Z,25.41
2023-01-20T05:43:41.887Z,25.41
2023-01-20T05:44:41.885Z,25.41
2023-01-20T05:45:41.881Z,25.41
2023-01-20T05:46:41.933Z,25.41
2023-01-20T05:47:41.900Z,25.41
2023-01-20T05:48:41.884Z,25.41
2023-01-20T05:49:41.879Z,25.41
2023-01-20T05:50:41.878Z,25.41
2023-01-20T05:51:41.888Z,25.41
2023-01-20T05:52:41.902Z,25.41
2023-01-20T05:53:41.874Z,25.41
2023-01-20T05:54:41.899Z,25.41
2023-01-20T05:55:41.880Z,25.41
2023-01-20T05:56:41.879Z,25.41
2023-01-20T05:57:41.892Z,25.41
2023-01-20T05:58:41.883Z,25.41
2023-01-20T05:59:41.877Z,25.41
2023-01-20T06:00:41.871Z,25.41
2023-01-20T06:01:41.885Z,25.41
2023-01-20T06:02:42.009Z,25.41
2023-01-20T06:03:41.964Z,25.41
2023-01-20T06:04:41.885Z,25.41
2023-01-20T06:05:41.879Z,25.41
2023-01-20T06:06:41.877Z,25.41
2023-01-20T06:07:41.879Z,25.41
2023-01-20T06:08:41.888Z,25.41
2023-01-20T06:09:41.884Z,25.41
2023-01-20T06:10:41.905Z,25.41
2023-01-20T06:11:41.880Z,25.41
2023-01-20T06:12:41.879Z,25.41
2023-01-20T06:13:41.880Z,25.41
2023-01-20T06:14:41.873Z,25.41
2023-01-20T06:15:41.880Z,25.41
2023-01-20T06:16:41.877Z,25.41
2023-01-20T06:17:41.883Z,25.41
2023-01-20T06:18:41.884Z,25.41
2023-01-20T06:19:41.888Z,25.41
2023-01-20T06:20:41.885Z,25.41
2023-01-20T06:21:41.883Z,25.41
2023-01-20T06:22:41.906Z,25.41
2023-01-20T06:23:41.883Z,25.41
2023-01-20T06:24:41.893Z,25.41
2023-01-20T06:25:41.890Z,25.41
2023-01-20T06:26:41.904Z,25.41
2023-01-20T06:27:41.911Z,25.41
2023-01-20T06:28:41.882Z,25.41
2023-01-20T06:29:41.878Z,25.41
2023-01-20T06:30:41.890Z,25.41
2023-01-20T06:31:42.006Z,25.41
2023-01-20T06:32:41.897Z,25.41
2023-01-20T06:33:41.891Z,25.41
2023-01-20T06:34:41.891Z,25.41
2023-01-20T06:35:41.892Z,25.41
2023-01-20T06:36:41.882Z,25.41
2023-01-20T06:37:41.922Z,25.41
2023-01-20T06:38:41.922Z,25.41
2023-01-20T06:39:41.883Z,25.41
2023-01-20T06:40:41.891Z,25.41
2023-01-20T06:41:41.878Z,25.41
2023-01-20T06:42:41.913Z,25.41
2023-01-20T06:43:41.965Z,25.41
2023-01-20T06:44:41.927Z,25.41
2023-01-20T06:45:41.897Z,25.41
2023-01-20T06:46:41.913Z,25.41
2023-01-20T06:47:41.896Z,25.41
2023-01-20T06:48:41.908Z,25.41
2023-01-20T06:49:41.887Z,25.41
2023-01-20T06:50:41.885Z,25.41
2023-01-20T06:51:41.966Z,25.41
2023-01-20T06:52:41.892Z,25.41
2023-01-20T06:53:41.893Z,25.41
2023-01-20T06:54:41.899Z,25.41
2023-01-20T06:55:41.882Z,25.41
2023-01-20T06:56:41.883Z,25.41
2023-01-20T06:57:41.892Z,25.41
2023-01-20T06:58:41.911Z,25.41
2023-01-20T06:59:41.896Z,25.41
2023-01-20T07:00:41.927Z,25.41
2023-01-20T07:01:41.990Z,25.41
2023-01-20T07:02:41.924Z,25.41
2023-01-20T07:03:41.897Z,25.41
2023-01-20T07:04:41.898Z,25.41
2023-01-20T07:05:41.899Z,25.41
2023-01-20T07:06:41.903Z,25.41
2023-01-20T07:07:41.894Z,25.41
2023-01-20T07:08:41.898Z,25.41
2023-01-20T07:09:41.906Z,25.41
2023-01-20T07:10:41.912Z,25.41
2023-01-20T07:11:41.895Z,25.41
2023-01-20T07:12:41.890Z,25.41
2023-01-20T07:13:41.905Z,25.41
2023-01-20T07:14:41.938Z,25.41
2023-01-20T07:15:41.895Z,25.41
2023-01-20T07:16:41.948Z,25.41
2023-01-20T07:17:41.900Z,25.41
2023-01-20T07:18:41.897Z,25.41
2023-01-20T07:19:41.903Z,25.41
2023-01-20T07:20:41.909Z,25.41
2023-01-20T07:21:41.912Z,25.41
2023-01-20T07:22:41.915Z,25.41
2023-01-20T07:23:41.896Z,25.41
2023-01-20T07:24:41.922Z,25.41
2023-01-20T07:25:41.901Z,25.41
2023-01-20T07:26:41.921Z,25.41
2023-01-20T07:27:41.907Z,25.41
2023-01-20T07:28:41.909Z,25.41
2023-01-20T07:29:41.932Z,25.41
2023-01-20T07:30:41.985Z,25.41
2023-01-20T07:31:41.983Z,25.41
2023-01-20T07:32:41.905Z,25.41
2023-01-20T07:33:41.919Z,25.41
2023-01-20T07:34:41.907Z,25.41
2023-01-20T07:35:41.905Z,25.41
2023-01-20T07:36:41.921Z,25.41
2023-01-20T07:37:41.921Z,25.41
2023-01-20T07:38:41.935Z,25.41
2023-01-20T07:39:41.920Z,25.41
2023-01-20T07:40:41.921Z,25.41
2023-01-20T07:41:41.900Z,25.41
2023-01-20T07:42:41.928Z,25.41
2023-01-20T07:43:41.923Z,25.41
2023-01-20T07:44:41.918Z,25.41
2023-01-20T07:45:41.969Z,25.41
2023-01-20T07:46:42.021Z,25.41
2023-01-20T07:47:41.916Z,25.41
2023-01-20T07:48:41.920Z,25.41
2023-01-20T07:49:41.921Z,25.41
2023-01-20T07:50:41.918Z,25.41
2023-01-20T07:51:41.912Z,25.41
2023-01-20T07:52:41.927Z,25.41
2023-01-20T07:53:41.926Z,25.41
2023-01-20T07:54:41.927Z,25.41
2023-01-20T07:55:41.930Z,25.41
2023-01-20T07:56:41.922Z,25.41
2023-01-20T07:57:41.929Z,25.41
2023-01-20T07:58:41.934Z,25.41
2023-01-20T07:59:41.936Z,25.41
2023-01-20T08:00:41.958Z,25.41
2023-01-20T08:01:42.001Z,25.41
2023-01-20T08:02:41.941Z,25.41
2023-01-20T08:03:41.927Z,25.41
2023-01-20T08:04:41.942Z,25.41
2023-01-20T08:05:41.936Z,25.41
2023-01-20T08:06:41.934Z,25.41
2023-01-20T08:07:41.952Z,25.41
2023-01-20T08:08:41.931Z,25.41
2023-01-20T08:09:41.924Z,25.41
2023-01-20T08:10:41.939Z,25.41
2023-01-20T08:11:41.921Z,25.41
2023-01-20T08:12:41.922Z,25.41
2023-01-20T08:13:41.924Z,25.41
2023-01-20T08:14:41.922Z,25.41
2023-01-20T08:15:41.936Z,25.41
2023-01-20T08:16:42.002Z,25.41
2023-01-20T08:17:41.935Z,25.41
2023-01-20T08:18:41.960Z,25.41
2023-01-20T08:19:41.936Z,25.41
2023-01-20T08:20:41.945Z,25.41
2023-01-20T08:21:41.926Z,25.41
2023-01-20T08:22:41.934Z,25.41
2023-01-20T08:23:41.945Z,25.41
2023-01-20T08:24:41.935Z,25.41
2023-01-20T08:25:41.958Z,25.41
2023-01-20T08:26:41.934Z,25.41
2023-01-20T08:27:41.938Z,25.41
2023-01-20T08:28:41.967Z,25.41
2023-01-20T08:29:41.931Z,25.41
2023-01-20T08:30:42.088Z,25.41
2023-01-20T08:31:42.046Z,25.41
2023-01-20T08:32:41.952Z,25.41
2023-01-20T08:33:41.946Z,25.41
2023-01-20T08:34:41.959Z,25.41
2023-01-20T08:35:41.942Z,25.41
2023-01-20T08:36:41.951Z,25.41
2023-01-20T08:37:41.937Z,25.41
2023-01-20T08:38:41.973Z,25.41
2023-01-20T08:39:41.932Z,25.41
2023-01-20T08:40:41.946Z,25.41
2023-01-20T08:41:41.940Z,25.41
2023-01-20T08:42:41.941Z,25.41
2023-01-20T08:43:41.947Z,25.41
2023-01-20T08:44:41.954Z,25.41
2023-01-20T08:45:41.957Z,25.41
2023-01-20T08:46:42.155Z,25.41
2023-01-20T08:47:41.956Z,25.41
2023-01-20T08:48:41.957Z,25.41
2023-01-20T08:49:41.951Z,25.41
2023-01-20T08:50:42.012Z,25.41
2023-01-20T08:51:42.054Z,25.41
2023-01-20T08:52:41.974Z,25.41
2023-01-20T08:53:41.953Z,25.41
2023-01-20T08:54:41.979Z,25.41
2023-01-20T08:55:41.958Z,25.41
2023-01-20T08:56:41.962Z,25.41
2023-01-20T08:57:41.959Z,25.41
2023-01-20T08:58:41.962Z,25.41
2023-01-20T08:59:41.958Z,25.41
2023-01-20T09:00:41.954Z,25.41
2023-01-20T09:01:42.116Z,25.41
2023-01-20T09:02:42.052Z,25.41
2023-01-20T09:03:44.989Z,25.41
2023-01-20T09:04:41.969Z,25.41
2023-01-20T09:05:41.977Z,25.41
2023-01-20T09:06:42.005Z,25.41
2023-01-20T09:07:41.959Z,25.41
2023-01-20T09:08:41.961Z,25.41
2023-01-20T09:09:41.973Z,25.41
2023-01-20T09:10:41.965Z,25.41
2023-01-20T09:11:41.988Z,25.41
2023-01-20T09:12:41.959Z,25.41
2023-01-20T09:13:41.961Z,25.41
2023-01-20T09:14:41.980Z,25.41
2023-01-20T09:15:42.065Z,25.41
2023-01-20T09:16:41.960Z,25.41
2023-01-20T09:17:41.975Z,25.41
2023-01-20T09:18:41.980Z,25.41
2023-01-20T09:19:41.967Z,25.41
2023-01-20T09:20:41.962Z,25.41
2023-01-20T09:21:41.984Z,25.41
2023-01-20T09:22:42.016Z,25.41
2023-01-20T09:23:41.977Z,25.41
2023-01-20T09:24:41.991Z,25.41
2023-01-20T09:25:41.975Z,25.41
2023-01-20T09:26:42.031Z,25.41
2023-01-20T09:27:41.968Z,25.41
2023-01-20T09:28:41.978Z,25.41
2023-01-20T09:29:41.978Z,25.41
2023-01-20T09:30:42.061Z,25.41
2023-01-20T09:31:42.102Z,25.41
2023-01-20T09:32:41.976Z,25.41
2023-01-20T09:33:41.987Z,25.41
2023-01-20T09:34:41.983Z,25.41
2023-01-20T09:35:41.974Z,25.41
2023-01-20T09:36:41.981Z,25.41
2023-01-20T09:37:42.011Z,25.41
2023-01-20T09:38:42.002Z,25.41
2023-01-20T09:39:41.984Z,25.41
2023-01-20T09:40:41.983Z,25.41
2023-01-20T09:41:42.241Z,25.41
2023-01-20T09:42:41.975Z,25.41
2023-01-20T09:43:41.987Z,25.41
2023-01-20T09:44:42.055Z,25.41
2023-01-20T09:45:42.005Z,25.41
2023-01-20T09:46:41.990Z,25.41
2023-01-20T09:47:41.993Z,25.41
2023-01-20T09:48:41.999Z,25.41
2023-01-20T09:49:41.991Z,25.41
2023-01-20T09:50:42.011Z,25.41
2023-01-20T09:51:42.000Z,25.41
2023-01-20T09:52:42.028Z,25.41
2023-01-20T09:53:42.017Z,25.41
2023-01-20T09:54:42.006Z,25.41
2023-01-20T09:55:41.983Z,25.41
2023-01-20T09:56:41.995Z,25.41
2023-01-20T09:57:42.003Z,25.41
2023-01-20T09:58:41.995Z,25.41
2023-01-20T09:59:41.999Z,25.41
2023-01-20T10:00:42.002Z,25.41
2023-01-20T10:01:42.064Z,25.41
2023-01-20T10:02:42.010Z,25.41
2023-01-20T10:03:42.027Z,25.41
2023-01-20T10:04:42.010Z,25.41
2023-01-20T10:05:42.057Z,25.41
2023-01-20T10:06:42.014Z,25.41
2023-01-20T10:07:42.001Z,25.41
2023-01-20T10:08:45.924Z,25.41
2023-01-20T10:09:42.003Z,25.41
2023-01-20T10:10:42.052Z,25.41
2023-01-20T10:11:42.080Z,25.41
2023-01-20T10:12:42.013Z,25.41
2023-01-20T10:13:42.006Z,25.41
2023-01-20T10:14:42.004Z,25.41
2023-01-20T10:15:42.043Z,25.41
2023-01-20T10:16:42.011Z,25.41
2023-01-20T10:17:42.016Z,25.41
2023-01-20T10:18:42.032Z,25.41
2023-01-20T10:19:42.022Z,25.41
2023-01-20T10:20:42.012Z,25.41
2023-01-20T10:21:42.024Z,25.41
2023-01-20T10:22:42.018Z,25.41
2023-01-20T10:23:42.009Z,25.41
2023-01-20T10:24:42.016Z,25.41
2023-01-20T10:25:42.025Z,25.41
2023-01-20T10:26:42.075Z,25.41
2023-01-20T10:27:42.021Z,25.41
2023-01-20T10:28:42.025Z,25.41
2023-01-20T10:29:42.040Z,25.41
2023-01-20T10:30:42.080Z,25.41
2023-01-20T10:31:42.069Z,25.41
2023-01-20T10:32:42.024Z,25.41
2023-01-20T10:33:42.044Z,25.41
2023-01-20T10:34:42.028Z,25.41
2023-01-20T10:35:42.034Z,25.41
2023-01-20T10:36:42.043Z,25.41
2023-01-20T10:37:42.036Z,25.41
2023-01-20T10:38:42.020Z,25.41
2023-01-20T10:39:42.052Z,25.41
2023-01-20T10:40:42.119Z,25.41
2023-01-20T10:41:42.019Z,25.41
2023-01-20T10:42:42.106Z,25.41
2023-01-20T10:43:42.030Z,25.41
2023-01-20T10:44:42.032Z,25.41
2023-01-20T10:45:42.036Z,25.41
2023-01-20T10:46:42.082Z,25.41
2023-01-20T10:47:42.035Z,25.41
2023-01-20T10:48:42.058Z,25.41
2023-01-20T10:49:42.041Z,25.41
2023-01-20T10:50:42.027Z,25.41
2023-01-20T10:51:42.039Z,25.41
2023-01-20T10:52:42.090Z,25.41
2023-01-20T10:53:42.054Z,25.41
2023-01-20T10:54:42.038Z,25.41
2023-01-20T10:55:42.032Z,25.41
2023-01-20T10:56:42.043Z,25.41
2023-01-20T10:57:42.029Z,25.41
2023-01-20T10:58:42.054Z,25.41
2023-01-20T10:59:42.052Z,25.41
2023-01-20T11:00:42.039Z,25.41
2023-01-20T11:01:42.081Z,25.41
2023-01-20T11:02:42.059Z,25.41
2023-01-20T11:03:42.045Z,25.41
2023-01-20T11:04:42.057Z,25.41
2023-01-20T11:05:42.065Z,25.41
2023-01-20T11:06:42.040Z,25.41
2023-01-20T11:07:42.039Z,25.41
2023-01-20T11:08:44.240Z,25.41
2023-01-20T11:09:42.041Z,25.41
2023-01-20T11:10:42.054Z,25.41
2023-01-20T11:11:42.074Z,25.41
2023-01-20T11:12:42.055Z,25.41
2023-01-20T11:13:42.059Z,25.41
2023-01-20T11:14:42.153Z,25.41
2023-01-20T11:15:42.047Z,25.41
2023-01-20T11:16:42.145Z,25.41
2023-01-20T11:17:42.050Z,25.41
2023-01-20T11:18:42.056Z,25.41
2023-01-20T11:19:42.044Z,25.41
2023-01-20T11:20:42.058Z,25.41
2023-01-20T11:21:42.052Z,25.41
2023-01-20T11:22:42.064Z,25.41
2023-01-20T11:23:42.063Z,25.41
2023-01-20T11:24:42.064Z,25.41
2023-01-20T11:25:42.055Z,25.41
2023-01-20T11:26:42.059Z,25.41
2023-01-20T11:27:42.076Z,25.41
2023-01-20T11:28:42.071Z,25.41
2023-01-20T11:29:42.084Z,25.41
2023-01-20T11:30:42.138Z,25.41
2023-01-20T11:31:42.135Z,25.41
2023-01-20T11:32:42.081Z,25.41
2023-01-20T11:33:42.053Z,25.41
2023-01-20T11:34:42.064Z,25.41
2023-01-20T11:35:42.052Z,25.41
2023-01-20T11:36:42.628Z,25.41
2023-01-20T11:37:42.066Z,25.41
2023-01-20T11:38:42.060Z,25.41
2023-01-20T11:39:42.064Z,25.41
2023-01-20T11:40:42.066Z,25.41
2023-01-20T11:41:42.063Z,25.41
2023-01-20T11:42:42.071Z,25.41
2023-01-20T11:43:42.070Z,25.41
2023-01-20T11:44:42.075Z,25.41
2023-01-20T11:45:42.072Z,25.41
2023-01-20T11:46:42.138Z,25.41
2023-01-20T11:47:42.069Z,25.41
2023-01-20T11:48:42.082Z,25.41
2023-01-20T11:49:42.073Z,25.41
2023-01-20T11:50:42.085Z,25.41
2023-01-20T11:51:42.096Z,25.41
2023-01-20T11:52:42.079Z,25.41
2023-01-20T11:53:42.086Z,25.41
2023-01-20T11:54:42.084Z,25.41
2023-01-20T11:55:42.083Z,25.41
2023-01-20T11:56:42.088Z,25.41
2023-01-20T11:57:42.087Z,25.41
2023-01-20T11:58:42.090Z,25.41
2023-01-20T11:59:42.081Z,25.41
2023-01-20T12:00:42.101Z,25.41
2023-01-20T12:01:42.136Z,25.41
2023-01-20T12:02:42.121Z,25.41
2023-01-20T12:03:42.092Z,25.41
2023-01-20T12:04:42.108Z,25.41
2023-01-20T12:05:42.092Z,25.41
2023-01-20T12:06:42.086Z,25.41
2023-01-20T12:07:42.087Z,25.41
2023-01-20T12:08:42.091Z,25.41
2023-01-20T12:09:42.110Z,25.41
2023-01-20T12:10:42.087Z,25.41
2023-01-20T12:11:42.094Z,25.41
2023-01-20T12:12:42.103Z,25.41
2023-01-20T12:13:42.096Z,25.41
2023-01-20T12:14:42.097Z,25.41
2023-01-20T12:15:42.111Z,25.41
2023-01-20T12:16:42.149Z,25.41
2023-01-20T12:17:42.105Z,25.41
2023-01-20T12:18:53.446Z,25.41
2023-01-20T12:19:42.111Z,25.41
2023-01-20T12:20:53.868Z,25.41
2023-01-20T12:21:42.104Z,25.41
2023-01-20T12:22:42.098Z,25.41
2023-01-20T12:23:42.103Z,25.41
2023-01-20T12:24:43.056Z,25.41
2023-01-20T12:25:42.097Z,25.41
2023-01-20T12:26:42.109Z,25.41
2023-01-20T12:27:42.103Z,25.41
2023-01-20T12:28:42.128Z,25.41
2023-01-20T12:29:42.127Z,25.41
2023-01-20T12:30:42.143Z,25.41
2023-01-20T12:31:42.131Z,25.41
2023-01-20T12:32:42.100Z,25.41
2023-01-20T12:33:42.107Z,25.41
2023-01-20T12:34:42.139Z,25.41
2023-01-20T12:35:42.119Z,25.41
2023-01-20T12:36:42.107Z,25.41
2023-01-20T12:37:42.119Z,25.41
2023-01-20T12:38:42.108Z,25.41
2023-01-20T12:39:42.125Z,25.41
2023-01-20T12:40:42.114Z,25.41
2023-01-20T12:41:42.118Z,25.41
2023-01-20T12:42:42.121Z,25.41
2023-01-20T12:43:42.143Z,25.41
2023-01-20T12:44:42.122Z,25.41
2023-01-20T12:45:42.183Z,25.41
2023-01-20T12:46:42.110Z,25.41
2023-01-20T12:47:42.113Z,25.41
2023-01-20T12:48:42.113Z,25.41
2023-01-20T12:49:42.123Z,25.41
2023-01-20T12:50:42.169Z,25.41
2023-01-20T12:51:42.125Z,25.41